LogoKauttuan Ilmailukerho
EFEU - Eura Aerodrome
METAR EFEU 221320Z AUTO VRB01KT 9999 SCT030 OVC042 01/01 Q1021=
Automatic weather information from Eura aerodrome at 13:21:50Z
WIND 10 min Min Ave Max Temperature 1.3 °C Clouds Amount Height
Direction 30 30 30 ° Dewpoint 1.3 °C /// /// ft
Speed 0.0 1.0 2.0 kt Humidity 100.0 % OVC 3900ft
VISIBILITY 10min 13500 m QNH 1021.0hPa SCT 2910 ft
Present Weather
Note ///
Vastuu näiden säätietojen käytöstä on ilma-aluksen päälliköllä! | Responsibility for the use of meteorological data is with the PIC!